KLGU/LGU METAR and TAF weather

Enter ICAO airport designator
Station Type Date Time Source
KLGU METAR 2020/07/02 18:51 UTC NOAA

KLGU 021851Z AUTO VRB04KT 10SM CLR 26/08 A3003 RMK AO2 SLP119 T02610078


Station Type Date Time Source
KLGU Decoded METAR 2020/07/02 18:51 UTC NOAA

LOGAN CACHE AIRPORT, UT, United States (KLGU) 41-47N 111-51W 1355M
Jul 02, 2020 - 02:51 PM EDT / 2020.07.02 1851 UTC
Wind: Variable at 5 MPH (4 KT):0
Visibility: 10 mile(s):0
Sky conditions: clear
Temperature: 79.0 F (26.1 C)
Dew Point: 46.0 F (7.8 C)
Relative Humidity: 31%
Pressure (altimeter): 30.03 in. Hg (1016 hPa)
ob: KLGU 021851Z AUTO VRB04KT 10SM CLR 26/08 A3003 RMK AO2 SLP119 T02610078
cycle: 19

Station Type Date Time Source
KLGU TAF 2020/07/02 18:42 UTC NOAA

TAF KLGU 021740Z 0218/0318 24006KT P6SM FEW150
FM030200 VRB04KT P6SM FEW050
FM031700 22006KT P6SM SKC

Example: see airport list